Hauptseite
METAR-TAF:

METAR-TAF

Flughäfen :

London Biggin Hill Airport

London Biggin Hill, England

Breite: 51-19N, Länge: 000-02E, Höhe: 183 m

Beobachtung

Neuester Wetterbericht von vor 29 Minuten, um 15:50 UTC
Wind 11 kt aus Südwest, variierte zwischen Süd und West/Südwest
Temperatur 26°C
Luftfeuchtigkeit 37%
Luftdruck 1012 hPa
Sichtweite 10 km oder mehr
keine Wolken unter 1500 m und keine Kumulonimbus oder Gewitterwolken

METAR: EGKB 161550Z 22011KT 190V250 CAVOK 26/10 Q1012

Zeit: 17:19 (16:19 UTC)

Prognose

Neuester Wetterbericht von vor 2 Stunden und 17 Minuten, um 14:02 UTC
Gültige Prognose vom 16 um 15 UTC bis 16 um 24 UTC
Wind 8 kt aus West
Sichtweite 10 km oder mehr
Leicht bewölkt in der Höhe von 4500 ft

TAF: EGKB 161402Z 1615/1624 27008KT 9999 FEW045

Wetterbeobachtungen und Prognosen von mehr als 4000 Flughäfen (METAR und TAF Bericht).

Die verfügbaren Stationen werden durch gelbe und rote Markierungen auf der Karte dargestellt.

Führen Sie die Maus auf sie, um den Namen der Station zu sehen.

Darauf klicken, um die Beobachtung von Wetterbeobachtungen und Prognosen zu sehen.

Um die Karte zu ändern : klicken Sie auf den grünen Tasten mit einem schwarzen Kreuz Zum Vergrößern, auf den grünen Button mit einem Gedankenstrich zu verkleinern, oder auf die grünen Pfeile für benachbarte Karten.


METAR-TAF: